Algonquin, Illinois
Current Conditions -  °F | °C
As of 7:52 AM on Wednesday 28 Jan 2015 (Local Time) from KDPA Reporting Station
Clear Clear  
Wind Chill: 13°   Ceiling: Unl
Heat Index: 22°   Visibility: 8mi
Dew Point: 16°   Wind: 7mph
Humidity: 78%   Direction: 160°SSE
Pressure: 30.26"   Gusts: NA
Location:  42.17°N, 88.29°W
Report Text: KDPA 281352Z 16006KT 8SM CLR M06/M09 A3026 RMK AO2 SLP260 T10561089
Loading
Personal Weather Stations






























Interactive Weather Map New forecast layout! Learn more

10-Day Weather Forecast

Advertisements
Track Severe Weather on mobile